sensor_id;sensor_type;location;lat;lon;timestamp;P1;durP1;ratioP1;P2;durP2;ratioP2
29246;SDS011;16272;48.188;9.964;2023-09-12T00:00:26;17.93;;;8.70;;
29246;SDS011;16272;48.188;9.964;2023-09-12T00:02:51;16.00;;;8.80;;
29246;SDS011;16272;48.188;9.964;2023-09-12T00:05:17;16.53;;;9.57;;
29246;SDS011;16272;48.188;9.964;2023-09-12T00:07:42;17.75;;;8.65;;
29246;SDS011;16272;48.188;9.964;2023-09-12T00:10:08;14.53;;;8.70;;
29246;SDS011;16272;48.188;9.964;2023-09-12T00:12:33;16.97;;;8.80;;
29246;SDS011;16272;48.188;9.964;2023-09-12T00:14:58;17.23;;;8.70;;
29246;SDS011;16272;48.188;9.964;2023-09-12T00:17:24;15.17;;;8.43;;
29246;SDS011;16272;48.188;9.964;2023-09-12T00:19:51;16.63;;;8.82;;
29246;SDS011;16272;48.188;9.964;2023-09-12T00:22:17;16.17;;;9.13;;
29246;SDS011;16272;48.188;9.964;2023-09-12T00:24:42;15.97;;;8.70;;
29246;SDS011;16272;48.188;9.964;2023-09-12T00:27:07;17.10;;;9.15;;
29246;SDS011;16272;48.188;9.964;2023-09-12T00:29:33;14.97;;;8.00;;
29246;SDS011;16272;48.188;9.964;2023-09-12T00:31:58;16.00;;;8.40;;
29246;SDS011;16272;48.188;9.964;2023-09-12T00:34:23;17.67;;;8.77;;
29246;SDS011;16272;48.188;9.964;2023-09-12T00:36:49;17.03;;;8.87;;
29246;SDS011;16272;48.188;9.964;2023-09-12T00:39:14;15.73;;;9.17;;
29246;SDS011;16272;48.188;9.964;2023-09-12T00:41:39;15.83;;;8.83;;
29246;SDS011;16272;48.188;9.964;2023-09-12T00:44:05;17.27;;;8.80;;
29246;SDS011;16272;48.188;9.964;2023-09-12T00:46:30;17.73;;;8.95;;
29246;SDS011;16272;48.188;9.964;2023-09-12T00:48:57;16.92;;;8.95;;
29246;SDS011;16272;48.188;9.964;2023-09-12T00:51:24;15.88;;;8.68;;
29246;SDS011;16272;48.188;9.964;2023-09-12T00:53:50;16.87;;;8.23;;
29246;SDS011;16272;48.188;9.964;2023-09-12T00:56:16;16.52;;;8.70;;
29246;SDS011;16272;48.188;9.964;2023-09-12T00:58:42;14.40;;;8.60;;
29246;SDS011;16272;48.188;9.964;2023-09-12T01:01:07;15.60;;;8.87;;
29246;SDS011;16272;48.188;9.964;2023-09-12T01:03:32;15.37;;;8.77;;
29246;SDS011;16272;48.188;9.964;2023-09-12T01:06:00;17.13;;;9.63;;
29246;SDS011;16272;48.188;9.964;2023-09-12T01:08:26;15.93;;;8.97;;
29246;SDS011;16272;48.188;9.964;2023-09-12T01:10:52;15.35;;;8.93;;
29246;SDS011;16272;48.188;9.964;2023-09-12T01:13:19;16.83;;;9.70;;
29246;SDS011;16272;48.188;9.964;2023-09-12T01:15:44;18.38;;;9.15;;
29246;SDS011;16272;48.188;9.964;2023-09-12T01:18:10;15.27;;;9.03;;
29246;SDS011;16272;48.188;9.964;2023-09-12T01:20:36;16.67;;;9.13;;
29246;SDS011;16272;48.188;9.964;2023-09-12T01:25:41;14.90;;;8.40;;
29246;SDS011;16272;48.188;9.964;2023-09-12T01:28:17;16.10;;;8.63;;
29246;SDS011;16272;48.188;9.964;2023-09-12T01:30:43;16.17;;;8.27;;
29246;SDS011;16272;48.188;9.964;2023-09-12T01:33:13;17.25;;;8.75;;
29246;SDS011;16272;48.188;9.964;2023-09-12T01:35:38;16.57;;;8.93;;
29246;SDS011;16272;48.188;9.964;2023-09-12T01:38:03;17.20;;;8.77;;
29246;SDS011;16272;48.188;9.964;2023-09-12T01:40:38;19.63;;;9.73;;
29246;SDS011;16272;48.188;9.964;2023-09-12T01:43:08;15.63;;;8.68;;
29246;SDS011;16272;48.188;9.964;2023-09-12T01:45:34;17.13;;;9.17;;
29246;SDS011;16272;48.188;9.964;2023-09-12T01:48:00;17.00;;;8.68;;
29246;SDS011;16272;48.188;9.964;2023-09-12T01:50:27;16.67;;;9.23;;
29246;SDS011;16272;48.188;9.964;2023-09-12T01:52:54;17.35;;;9.23;;
29246;SDS011;16272;48.188;9.964;2023-09-12T01:55:20;17.73;;;9.30;;
29246;SDS011;16272;48.188;9.964;2023-09-12T01:57:47;15.68;;;8.70;;
29246;SDS011;16272;48.188;9.964;2023-09-12T02:00:12;18.73;;;8.87;;
29246;SDS011;16272;48.188;9.964;2023-09-12T02:02:38;15.23;;;8.67;;
29246;SDS011;16272;48.188;9.964;2023-09-12T02:05:16;15.23;;;8.38;;
29246;SDS011;16272;48.188;9.964;2023-09-12T02:07:44;14.77;;;8.73;;
29246;SDS011;16272;48.188;9.964;2023-09-12T02:10:10;17.33;;;8.93;;
29246;SDS011;16272;48.188;9.964;2023-09-12T02:12:35;16.90;;;9.77;;
29246;SDS011;16272;48.188;9.964;2023-09-12T02:15:01;16.45;;;8.60;;
29246;SDS011;16272;48.188;9.964;2023-09-12T02:17:27;16.73;;;8.27;;
29246;SDS011;16272;48.188;9.964;2023-09-12T02:19:52;16.47;;;8.97;;
29246;SDS011;16272;48.188;9.964;2023-09-12T02:22:17;17.37;;;8.47;;
29246;SDS011;16272;48.188;9.964;2023-09-12T02:24:42;17.27;;;8.90;;
29246;SDS011;16272;48.188;9.964;2023-09-12T02:27:08;15.77;;;8.32;;
29246;SDS011;16272;48.188;9.964;2023-09-12T02:29:34;16.03;;;8.43;;
29246;SDS011;16272;48.188;9.964;2023-09-12T02:31:59;19.50;;;9.07;;
29246;SDS011;16272;48.188;9.964;2023-09-12T02:34:25;18.25;;;9.35;;
29246;SDS011;16272;48.188;9.964;2023-09-12T02:36:50;15.63;;;8.30;;
29246;SDS011;16272;48.188;9.964;2023-09-12T02:39:15;15.30;;;8.50;;
29246;SDS011;16272;48.188;9.964;2023-09-12T02:41:41;19.17;;;9.87;;
29246;SDS011;16272;48.188;9.964;2023-09-12T02:44:06;16.33;;;8.60;;
29246;SDS011;16272;48.188;9.964;2023-09-12T02:46:32;17.23;;;8.80;;
29246;SDS011;16272;48.188;9.964;2023-09-12T02:48:57;16.63;;;10.40;;
29246;SDS011;16272;48.188;9.964;2023-09-12T02:51:24;17.57;;;9.57;;
29246;SDS011;16272;48.188;9.964;2023-09-12T02:53:50;17.70;;;9.20;;
29246;SDS011;16272;48.188;9.964;2023-09-12T02:56:16;17.10;;;9.40;;
29246;SDS011;16272;48.188;9.964;2023-09-12T02:58:41;16.63;;;8.30;;
29246;SDS011;16272;48.188;9.964;2023-09-12T03:01:06;17.63;;;9.20;;
29246;SDS011;16272;48.188;9.964;2023-09-12T03:03:31;16.40;;;8.83;;
29246;SDS011;16272;48.188;9.964;2023-09-12T03:05:58;17.02;;;8.88;;
29246;SDS011;16272;48.188;9.964;2023-09-12T03:08:24;18.45;;;8.77;;
29246;SDS011;16272;48.188;9.964;2023-09-12T03:10:54;16.57;;;8.53;;
29246;SDS011;16272;48.188;9.964;2023-09-12T03:13:26;16.50;;;8.38;;
29246;SDS011;16272;48.188;9.964;2023-09-12T03:15:53;15.18;;;7.85;;
29246;SDS011;16272;48.188;9.964;2023-09-12T03:18:19;14.47;;;8.40;;
29246;SDS011;16272;48.188;9.964;2023-09-12T03:20:44;16.97;;;8.57;;
29246;SDS011;16272;48.188;9.964;2023-09-12T03:23:09;16.45;;;8.90;;
29246;SDS011;16272;48.188;9.964;2023-09-12T03:25:38;16.27;;;8.77;;
29246;SDS011;16272;48.188;9.964;2023-09-12T03:28:05;29.42;;;8.60;;
29246;SDS011;16272;48.188;9.964;2023-09-12T03:30:35;16.47;;;8.60;;
29246;SDS011;16272;48.188;9.964;2023-09-12T03:33:01;16.38;;;8.98;;
29246;SDS011;16272;48.188;9.964;2023-09-12T03:35:28;16.90;;;8.40;;
29246;SDS011;16272;48.188;9.964;2023-09-12T03:37:54;15.80;;;8.57;;
29246;SDS011;16272;48.188;9.964;2023-09-12T03:40:19;15.93;;;9.23;;
29246;SDS011;16272;48.188;9.964;2023-09-12T03:42:44;16.35;;;8.73;;
29246;SDS011;16272;48.188;9.964;2023-09-12T03:45:10;17.03;;;9.20;;
29246;SDS011;16272;48.188;9.964;2023-09-12T03:47:35;14.77;;;8.77;;
29246;SDS011;16272;48.188;9.964;2023-09-12T03:50:00;17.60;;;8.80;;
29246;SDS011;16272;48.188;9.964;2023-09-12T03:52:27;17.45;;;8.77;;
29246;SDS011;16272;48.188;9.964;2023-09-12T03:54:52;16.20;;;8.87;;
29246;SDS011;16272;48.188;9.964;2023-09-12T03:57:17;18.13;;;8.93;;
29246;SDS011;16272;48.188;9.964;2023-09-12T03:59:43;20.27;;;8.90;;
29246;SDS011;16272;48.188;9.964;2023-09-12T04:02:08;16.27;;;8.47;;
29246;SDS011;16272;48.188;9.964;2023-09-12T04:04:33;16.88;;;8.65;;
29246;SDS011;16272;48.188;9.964;2023-09-12T04:06:59;19.13;;;9.27;;
29246;SDS011;16272;48.188;9.964;2023-09-12T04:09:24;16.00;;;8.73;;
29246;SDS011;16272;48.188;9.964;2023-09-12T04:11:49;17.87;;;9.10;;
29246;SDS011;16272;48.188;9.964;2023-09-12T04:14:15;16.63;;;8.93;;
29246;SDS011;16272;48.188;9.964;2023-09-12T04:16:40;16.07;;;9.13;;
29246;SDS011;16272;48.188;9.964;2023-09-12T04:19:05;16.70;;;9.00;;
29246;SDS011;16272;48.188;9.964;2023-09-12T04:21:30;15.77;;;9.07;;
29246;SDS011;16272;48.188;9.964;2023-09-12T04:23:56;16.80;;;9.33;;
29246;SDS011;16272;48.188;9.964;2023-09-12T04:26:21;17.97;;;8.97;;
29246;SDS011;16272;48.188;9.964;2023-09-12T04:28:47;17.03;;;8.57;;
29246;SDS011;16272;48.188;9.964;2023-09-12T04:31:12;17.23;;;9.17;;
29246;SDS011;16272;48.188;9.964;2023-09-12T04:33:37;16.77;;;8.50;;
29246;SDS011;16272;48.188;9.964;2023-09-12T04:36:03;17.90;;;8.47;;
29246;SDS011;16272;48.188;9.964;2023-09-12T04:38:28;16.33;;;8.20;;
29246;SDS011;16272;48.188;9.964;2023-09-12T04:40:57;16.10;;;8.53;;
29246;SDS011;16272;48.188;9.964;2023-09-12T04:43:27;14.80;;;8.40;;
29246;SDS011;16272;48.188;9.964;2023-09-12T04:45:53;16.13;;;8.57;;
29246;SDS011;16272;48.188;9.964;2023-09-12T04:48:18;16.33;;;8.90;;
29246;SDS011;16272;48.188;9.964;2023-09-12T04:50:43;15.30;;;9.07;;
29246;SDS011;16272;48.188;9.964;2023-09-12T04:53:08;16.10;;;8.73;;
29246;SDS011;16272;48.188;9.964;2023-09-12T04:55:37;16.40;;;8.43;;
29246;SDS011;16272;48.188;9.964;2023-09-12T04:58:04;15.90;;;9.27;;
29246;SDS011;16272;48.188;9.964;2023-09-12T05:00:30;15.23;;;8.60;;
29246;SDS011;16272;48.188;9.964;2023-09-12T05:02:55;16.35;;;8.93;;
29246;SDS011;16272;48.188;9.964;2023-09-12T05:05:21;15.50;;;8.33;;
29246;SDS011;16272;48.188;9.964;2023-09-12T05:07:46;17.17;;;8.87;;
29246;SDS011;16272;48.188;9.964;2023-09-12T05:10:11;15.17;;;8.33;;
29246;SDS011;16272;48.188;9.964;2023-09-12T05:12:37;17.03;;;8.43;;
29246;SDS011;16272;48.188;9.964;2023-09-12T05:15:02;16.77;;;8.57;;
29246;SDS011;16272;48.188;9.964;2023-09-12T05:17:28;15.07;;;8.33;;
29246;SDS011;16272;48.188;9.964;2023-09-12T05:19:53;15.20;;;8.13;;
29246;SDS011;16272;48.188;9.964;2023-09-12T05:22:19;15.17;;;8.07;;
29246;SDS011;16272;48.188;9.964;2023-09-12T05:24:45;16.10;;;8.97;;
29246;SDS011;16272;48.188;9.964;2023-09-12T05:27:10;18.98;;;8.82;;
29246;SDS011;16272;48.188;9.964;2023-09-12T05:29:36;16.30;;;9.00;;
29246;SDS011;16272;48.188;9.964;2023-09-12T05:32:01;16.53;;;8.93;;
29246;SDS011;16272;48.188;9.964;2023-09-12T05:34:26;16.40;;;8.43;;
29246;SDS011;16272;48.188;9.964;2023-09-12T05:36:52;16.55;;;8.93;;
29246;SDS011;16272;48.188;9.964;2023-09-12T05:39:17;16.90;;;8.83;;
29246;SDS011;16272;48.188;9.964;2023-09-12T05:41:43;17.17;;;9.07;;
29246;SDS011;16272;48.188;9.964;2023-09-12T05:44:08;17.77;;;9.43;;
29246;SDS011;16272;48.188;9.964;2023-09-12T05:46:34;17.33;;;9.63;;
29246;SDS011;16272;48.188;9.964;2023-09-12T05:49:00;16.80;;;9.00;;
29246;SDS011;16272;48.188;9.964;2023-09-12T05:51:25;15.85;;;9.18;;
29246;SDS011;16272;48.188;9.964;2023-09-12T05:53:50;17.30;;;9.10;;
29246;SDS011;16272;48.188;9.964;2023-09-12T05:56:15;18.17;;;10.03;;
29246;SDS011;16272;48.188;9.964;2023-09-12T05:58:41;17.63;;;9.80;;
29246;SDS011;16272;48.188;9.964;2023-09-12T06:01:08;17.75;;;10.27;;
29246;SDS011;16272;48.188;9.964;2023-09-12T06:03:33;20.10;;;9.93;;
29246;SDS011;16272;48.188;9.964;2023-09-12T06:05:59;17.70;;;10.37;;
29246;SDS011;16272;48.188;9.964;2023-09-12T06:08:24;19.60;;;10.07;;
29246;SDS011;16272;48.188;9.964;2023-09-12T06:10:49;20.73;;;10.27;;
29246;SDS011;16272;48.188;9.964;2023-09-12T06:13:18;19.90;;;10.55;;
29246;SDS011;16272;48.188;9.964;2023-09-12T06:15:44;18.97;;;10.33;;
29246;SDS011;16272;48.188;9.964;2023-09-12T06:18:09;17.75;;;10.55;;
29246;SDS011;16272;48.188;9.964;2023-09-12T06:20:35;23.47;;;10.73;;
29246;SDS011;16272;48.188;9.964;2023-09-12T06:23:00;17.37;;;10.53;;
29246;SDS011;16272;48.188;9.964;2023-09-12T06:25:25;18.73;;;10.93;;
29246;SDS011;16272;48.188;9.964;2023-09-12T06:27:51;17.90;;;10.67;;
29246;SDS011;16272;48.188;9.964;2023-09-12T06:30:16;18.20;;;11.60;;
29246;SDS011;16272;48.188;9.964;2023-09-12T06:32:41;19.33;;;11.17;;
29246;SDS011;16272;48.188;9.964;2023-09-12T06:35:07;19.83;;;11.67;;
29246;SDS011;16272;48.188;9.964;2023-09-12T06:37:33;18.33;;;11.27;;
29246;SDS011;16272;48.188;9.964;2023-09-12T06:39:59;20.20;;;11.77;;
29246;SDS011;16272;48.188;9.964;2023-09-12T06:42:24;20.50;;;10.67;;
29246;SDS011;16272;48.188;9.964;2023-09-12T06:44:49;18.80;;;10.77;;
29246;SDS011;16272;48.188;9.964;2023-09-12T06:47:14;17.70;;;10.67;;
29246;SDS011;16272;48.188;9.964;2023-09-12T06:49:40;17.87;;;10.67;;
29246;SDS011;16272;48.188;9.964;2023-09-12T06:52:05;17.53;;;10.67;;
29246;SDS011;16272;48.188;9.964;2023-09-12T06:54:32;18.33;;;11.27;;
29246;SDS011;16272;48.188;9.964;2023-09-12T06:56:57;20.02;;;10.52;;
29246;SDS011;16272;48.188;9.964;2023-09-12T06:59:23;16.93;;;11.00;;
29246;SDS011;16272;48.188;9.964;2023-09-12T07:01:48;18.47;;;10.73;;
29246;SDS011;16272;48.188;9.964;2023-09-12T07:04:13;18.53;;;11.00;;
29246;SDS011;16272;48.188;9.964;2023-09-12T07:06:39;20.97;;;11.20;;
29246;SDS011;16272;48.188;9.964;2023-09-12T07:09:04;22.27;;;11.13;;
29246;SDS011;16272;48.188;9.964;2023-09-12T07:11:29;20.67;;;10.73;;
29246;SDS011;16272;48.188;9.964;2023-09-12T07:13:55;18.40;;;10.77;;
29246;SDS011;16272;48.188;9.964;2023-09-12T07:16:20;18.23;;;10.73;;
29246;SDS011;16272;48.188;9.964;2023-09-12T07:18:47;17.67;;;10.43;;
29246;SDS011;16272;48.188;9.964;2023-09-12T07:21:13;17.30;;;10.07;;
29246;SDS011;16272;48.188;9.964;2023-09-12T07:23:38;21.20;;;10.97;;
29246;SDS011;16272;48.188;9.964;2023-09-12T07:26:03;18.30;;;10.20;;
29246;SDS011;16272;48.188;9.964;2023-09-12T07:28:29;16.13;;;9.87;;
29246;SDS011;16272;48.188;9.964;2023-09-12T07:30:55;18.60;;;10.32;;
29246;SDS011;16272;48.188;9.964;2023-09-12T07:33:21;17.45;;;10.10;;
29246;SDS011;16272;48.188;9.964;2023-09-12T07:35:47;18.13;;;10.23;;
29246;SDS011;16272;48.188;9.964;2023-09-12T07:38:13;20.45;;;10.27;;
29246;SDS011;16272;48.188;9.964;2023-09-12T07:40:40;18.50;;;9.90;;
29246;SDS011;16272;48.188;9.964;2023-09-12T07:43:06;18.15;;;10.50;;
29246;SDS011;16272;48.188;9.964;2023-09-12T07:45:32;16.58;;;10.18;;
29246;SDS011;16272;48.188;9.964;2023-09-12T07:48:01;20.98;;;9.65;;
29246;SDS011;16272;48.188;9.964;2023-09-12T07:50:28;16.83;;;9.53;;
29246;SDS011;16272;48.188;9.964;2023-09-12T07:52:54;22.58;;;10.25;;
29246;SDS011;16272;48.188;9.964;2023-09-12T07:55:19;16.73;;;10.20;;
29246;SDS011;16272;48.188;9.964;2023-09-12T07:57:45;18.97;;;9.73;;
29246;SDS011;16272;48.188;9.964;2023-09-12T08:00:10;20.38;;;9.70;;
29246;SDS011;16272;48.188;9.964;2023-09-12T08:02:36;16.33;;;9.93;;
29246;SDS011;16272;48.188;9.964;2023-09-12T08:05:01;17.05;;;9.13;;
29246;SDS011;16272;48.188;9.964;2023-09-12T08:07:27;15.60;;;9.50;;
29246;SDS011;16272;48.188;9.964;2023-09-12T08:12:22;16.30;;;10.45;;
29246;SDS011;16272;48.188;9.964;2023-09-12T08:14:49;15.13;;;8.95;;
29246;SDS011;16272;48.188;9.964;2023-09-12T08:17:14;14.97;;;9.50;;
29246;SDS011;16272;48.188;9.964;2023-09-12T08:19:40;17.30;;;9.63;;
29246;SDS011;16272;48.188;9.964;2023-09-12T08:22:07;14.85;;;9.63;;
29246;SDS011;16272;48.188;9.964;2023-09-12T08:24:33;17.58;;;10.68;;
29246;SDS011;16272;48.188;9.964;2023-09-12T08:26:59;15.77;;;9.55;;
29246;SDS011;16272;48.188;9.964;2023-09-12T08:29:25;15.80;;;9.80;;
29246;SDS011;16272;48.188;9.964;2023-09-12T08:31:50;15.00;;;10.00;;
29246;SDS011;16272;48.188;9.964;2023-09-12T08:34:15;14.43;;;9.33;;
29246;SDS011;16272;48.188;9.964;2023-09-12T08:36:41;15.03;;;9.90;;
29246;SDS011;16272;48.188;9.964;2023-09-12T08:39:06;14.47;;;9.77;;
29246;SDS011;16272;48.188;9.964;2023-09-12T08:41:34;15.02;;;9.32;;
29246;SDS011;16272;48.188;9.964;2023-09-12T08:43:59;14.37;;;9.33;;
29246;SDS011;16272;48.188;9.964;2023-09-12T08:46:25;12.43;;;8.55;;
29246;SDS011;16272;48.188;9.964;2023-09-12T08:48:51;15.40;;;9.53;;
29246;SDS011;16272;48.188;9.964;2023-09-12T08:51:20;14.13;;;9.68;;
29246;SDS011;16272;48.188;9.964;2023-09-12T08:53:48;14.82;;;9.13;;
29246;SDS011;16272;48.188;9.964;2023-09-12T08:56:14;16.57;;;9.00;;
29246;SDS011;16272;48.188;9.964;2023-09-12T08:58:40;12.60;;;8.50;;
29246;SDS011;16272;48.188;9.964;2023-09-12T09:01:06;13.25;;;9.10;;
29246;SDS011;16272;48.188;9.964;2023-09-12T09:03:32;13.03;;;8.63;;
29246;SDS011;16272;48.188;9.964;2023-09-12T09:05:59;13.35;;;9.38;;
29246;SDS011;16272;48.188;9.964;2023-09-12T09:08:26;14.60;;;9.05;;
29246;SDS011;16272;48.188;9.964;2023-09-12T09:11:00;13.50;;;8.90;;
29246;SDS011;16272;48.188;9.964;2023-09-12T09:13:30;13.35;;;9.77;;
29246;SDS011;16272;48.188;9.964;2023-09-12T09:16:09;15.40;;;8.90;;
29246;SDS011;16272;48.188;9.964;2023-09-12T09:18:57;14.38;;;9.07;;
29246;SDS011;16272;48.188;9.964;2023-09-12T09:21:25;13.10;;;9.27;;
29246;SDS011;16272;48.188;9.964;2023-09-12T09:23:52;24.50;;;9.60;;
29246;SDS011;16272;48.188;9.964;2023-09-12T09:26:19;14.80;;;8.75;;
29246;SDS011;16272;48.188;9.964;2023-09-12T09:28:45;13.50;;;9.70;;
29246;SDS011;16272;48.188;9.964;2023-09-12T09:31:11;12.75;;;9.18;;
29246;SDS011;16272;48.188;9.964;2023-09-12T09:33:39;14.83;;;10.23;;
29246;SDS011;16272;48.188;9.964;2023-09-12T09:36:06;13.98;;;9.20;;
29246;SDS011;16272;48.188;9.964;2023-09-12T09:38:34;13.35;;;9.38;;
29246;SDS011;16272;48.188;9.964;2023-09-12T09:41:03;14.27;;;9.57;;
29246;SDS011;16272;48.188;9.964;2023-09-12T09:43:30;13.52;;;9.23;;
29246;SDS011;16272;48.188;9.964;2023-09-12T09:45:56;14.00;;;9.40;;
29246;SDS011;16272;48.188;9.964;2023-09-12T09:48:23;14.65;;;9.25;;
29246;SDS011;16272;48.188;9.964;2023-09-12T09:50:52;14.70;;;9.07;;
29246;SDS011;16272;48.188;9.964;2023-09-12T09:53:21;13.25;;;8.95;;
29246;SDS011;16272;48.188;9.964;2023-09-12T09:55:51;15.23;;;9.00;;
29246;SDS011;16272;48.188;9.964;2023-09-12T09:58:16;12.87;;;8.77;;
29246;SDS011;16272;48.188;9.964;2023-09-12T10:00:42;13.07;;;8.80;;
29246;SDS011;16272;48.188;9.964;2023-09-12T10:03:08;13.60;;;9.00;;
29246;SDS011;16272;48.188;9.964;2023-09-12T10:05:35;14.03;;;9.03;;
29246;SDS011;16272;48.188;9.964;2023-09-12T10:08:02;13.20;;;9.23;;
29246;SDS011;16272;48.188;9.964;2023-09-12T10:10:31;15.70;;;9.70;;
29246;SDS011;16272;48.188;9.964;2023-09-12T10:12:58;14.45;;;9.02;;
29246;SDS011;16272;48.188;9.964;2023-09-12T10:15:28;11.63;;;8.48;;
29246;SDS011;16272;48.188;9.964;2023-09-12T10:17:56;13.23;;;9.53;;
29246;SDS011;16272;48.188;9.964;2023-09-12T10:20:25;12.85;;;8.85;;
29246;SDS011;16272;48.188;9.964;2023-09-12T10:23:03;16.05;;;9.57;;
29246;SDS011;16272;48.188;9.964;2023-09-12T10:25:34;14.55;;;9.02;;
29246;SDS011;16272;48.188;9.964;2023-09-12T10:28:02;13.23;;;8.60;;
29246;SDS011;16272;48.188;9.964;2023-09-12T10:30:29;12.90;;;9.02;;
29246;SDS011;16272;48.188;9.964;2023-09-12T10:32:56;13.80;;;9.18;;
29246;SDS011;16272;48.188;9.964;2023-09-12T10:35:22;13.70;;;8.98;;
29246;SDS011;16272;48.188;9.964;2023-09-12T10:37:48;12.30;;;8.87;;
29246;SDS011;16272;48.188;9.964;2023-09-12T10:40:15;12.23;;;8.13;;
29246;SDS011;16272;48.188;9.964;2023-09-12T10:42:42;13.75;;;8.27;;
29246;SDS011;16272;48.188;9.964;2023-09-12T10:45:08;12.07;;;8.03;;
29246;SDS011;16272;48.188;9.964;2023-09-12T10:47:35;12.13;;;8.88;;
29246;SDS011;16272;48.188;9.964;2023-09-12T10:50:01;13.30;;;9.18;;
29246;SDS011;16272;48.188;9.964;2023-09-12T10:52:27;12.70;;;8.50;;
29246;SDS011;16272;48.188;9.964;2023-09-12T10:54:53;13.18;;;8.27;;
29246;SDS011;16272;48.188;9.964;2023-09-12T10:57:18;12.37;;;8.27;;
29246;SDS011;16272;48.188;9.964;2023-09-12T11:02:33;12.02;;;8.30;;
29246;SDS011;16272;48.188;9.964;2023-09-12T11:05:02;11.88;;;8.13;;
29246;SDS011;16272;48.188;9.964;2023-09-12T11:12:41;11.52;;;7.30;;
29246;SDS011;16272;48.188;9.964;2023-09-12T11:15:07;11.98;;;7.80;;
29246;SDS011;16272;48.188;9.964;2023-09-12T11:17:39;11.35;;;7.28;;
29246;SDS011;16272;48.188;9.964;2023-09-12T11:20:04;10.00;;;7.03;;
29246;SDS011;16272;48.188;9.964;2023-09-12T11:22:35;10.80;;;7.05;;
29246;SDS011;16272;48.188;9.964;2023-09-12T11:25:02;10.48;;;6.95;;
29246;SDS011;16272;48.188;9.964;2023-09-12T11:27:31;13.43;;;7.50;;
29246;SDS011;16272;48.188;9.964;2023-09-12T11:30:08;10.90;;;7.78;;
29246;SDS011;16272;48.188;9.964;2023-09-12T11:32:35;12.90;;;7.40;;
29246;SDS011;16272;48.188;9.964;2023-09-12T11:35:05;10.82;;;7.85;;
29246;SDS011;16272;48.188;9.964;2023-09-12T11:37:32;11.80;;;7.78;;
29246;SDS011;16272;48.188;9.964;2023-09-12T11:39:58;11.88;;;7.30;;
29246;SDS011;16272;48.188;9.964;2023-09-12T11:42:24;12.50;;;7.65;;
29246;SDS011;16272;48.188;9.964;2023-09-12T11:44:51;11.17;;;7.27;;
29246;SDS011;16272;48.188;9.964;2023-09-12T11:47:16;11.45;;;7.82;;
29246;SDS011;16272;48.188;9.964;2023-09-12T11:49:42;11.43;;;7.80;;
29246;SDS011;16272;48.188;9.964;2023-09-12T11:52:11;10.57;;;7.03;;
29246;SDS011;16272;48.188;9.964;2023-09-12T11:54:38;11.02;;;7.32;;
29246;SDS011;16272;48.188;9.964;2023-09-12T11:57:06;10.50;;;7.28;;
29246;SDS011;16272;48.188;9.964;2023-09-12T11:59:33;12.77;;;7.55;;
29246;SDS011;16272;48.188;9.964;2023-09-12T12:02:05;10.53;;;7.13;;
29246;SDS011;16272;48.188;9.964;2023-09-12T12:04:31;12.05;;;7.25;;
29246;SDS011;16272;48.188;9.964;2023-09-12T12:06:57;10.63;;;6.80;;
29246;SDS011;16272;48.188;9.964;2023-09-12T12:09:22;11.33;;;7.43;;
29246;SDS011;16272;48.188;9.964;2023-09-12T12:11:48;10.70;;;7.75;;
29246;SDS011;16272;48.188;9.964;2023-09-12T12:14:13;10.90;;;7.83;;
29246;SDS011;16272;48.188;9.964;2023-09-12T12:16:43;11.82;;;8.15;;
29246;SDS011;16272;48.188;9.964;2023-09-12T12:19:10;12.40;;;7.33;;
29246;SDS011;16272;48.188;9.964;2023-09-12T12:21:37;10.95;;;7.25;;
29246;SDS011;16272;48.188;9.964;2023-09-12T12:24:03;10.38;;;7.03;;
29246;SDS011;16272;48.188;9.964;2023-09-12T12:26:30;10.60;;;6.70;;
29246;SDS011;16272;48.188;9.964;2023-09-12T12:28:55;11.00;;;6.70;;
29246;SDS011;16272;48.188;9.964;2023-09-12T12:31:21;11.63;;;7.00;;
29246;SDS011;16272;48.188;9.964;2023-09-12T12:33:49;10.48;;;6.85;;
29246;SDS011;16272;48.188;9.964;2023-09-12T12:36:18;12.48;;;7.28;;
29246;SDS011;16272;48.188;9.964;2023-09-12T12:38:43;11.48;;;7.10;;
29246;SDS011;16272;48.188;9.964;2023-09-12T12:41:12;12.13;;;7.88;;
29246;SDS011;16272;48.188;9.964;2023-09-12T12:43:42;12.23;;;7.20;;
29246;SDS011;16272;48.188;9.964;2023-09-12T12:46:11;11.98;;;7.43;;
29246;SDS011;16272;48.188;9.964;2023-09-12T12:48:37;13.60;;;7.72;;
29246;SDS011;16272;48.188;9.964;2023-09-12T12:51:19;10.38;;;6.72;;
29246;SDS011;16272;48.188;9.964;2023-09-12T12:53:48;9.93;;;7.05;;
29246;SDS011;16272;48.188;9.964;2023-09-12T12:56:20;11.03;;;6.70;;
29246;SDS011;16272;48.188;9.964;2023-09-12T13:01:12;10.73;;;6.37;;
29246;SDS011;16272;48.188;9.964;2023-09-12T13:03:38;10.63;;;6.80;;
29246;SDS011;16272;48.188;9.964;2023-09-12T13:06:04;11.02;;;7.22;;
29246;SDS011;16272;48.188;9.964;2023-09-12T13:08:31;10.97;;;7.17;;
29246;SDS011;16272;48.188;9.964;2023-09-12T13:10:59;10.40;;;6.78;;
29246;SDS011;16272;48.188;9.964;2023-09-12T13:13:25;13.73;;;6.43;;
29246;SDS011;16272;48.188;9.964;2023-09-12T13:15:50;24.60;;;7.00;;
29246;SDS011;16272;48.188;9.964;2023-09-12T13:18:15;11.97;;;6.30;;
29246;SDS011;16272;48.188;9.964;2023-09-12T13:20:41;12.10;;;6.93;;
29246;SDS011;16272;48.188;9.964;2023-09-12T13:23:06;10.30;;;7.10;;
29246;SDS011;16272;48.188;9.964;2023-09-12T13:25:31;10.47;;;6.90;;
29246;SDS011;16272;48.188;9.964;2023-09-12T13:27:56;12.07;;;7.33;;
29246;SDS011;16272;48.188;9.964;2023-09-12T13:30:23;10.85;;;6.50;;
29246;SDS011;16272;48.188;9.964;2023-09-12T13:32:48;11.70;;;6.97;;
29246;SDS011;16272;48.188;9.964;2023-09-12T13:35:13;12.00;;;7.43;;
29246;SDS011;16272;48.188;9.964;2023-09-12T13:37:38;14.93;;;6.93;;
29246;SDS011;16272;48.188;9.964;2023-09-12T13:40:04;11.40;;;6.37;;
29246;SDS011;16272;48.188;9.964;2023-09-12T13:42:31;10.68;;;7.35;;
29246;SDS011;16272;48.188;9.964;2023-09-12T13:44:57;11.47;;;6.80;;
29246;SDS011;16272;48.188;9.964;2023-09-12T13:47:22;10.80;;;6.70;;
29246;SDS011;16272;48.188;9.964;2023-09-12T13:49:48;11.37;;;7.13;;
29246;SDS011;16272;48.188;9.964;2023-09-12T13:52:13;11.57;;;6.72;;
29246;SDS011;16272;48.188;9.964;2023-09-12T13:54:40;11.43;;;6.80;;
29246;SDS011;16272;48.188;9.964;2023-09-12T13:57:05;11.53;;;6.80;;
29246;SDS011;16272;48.188;9.964;2023-09-12T13:59:30;11.43;;;7.40;;
29246;SDS011;16272;48.188;9.964;2023-09-12T14:01:55;11.80;;;7.73;;
29246;SDS011;16272;48.188;9.964;2023-09-12T14:04:21;10.90;;;7.53;;
29246;SDS011;16272;48.188;9.964;2023-09-12T14:06:46;12.17;;;6.87;;
29246;SDS011;16272;48.188;9.964;2023-09-12T14:09:11;11.80;;;6.33;;
29246;SDS011;16272;48.188;9.964;2023-09-12T14:11:36;10.47;;;6.83;;
29246;SDS011;16272;48.188;9.964;2023-09-12T14:14:03;10.00;;;6.45;;
29246;SDS011;16272;48.188;9.964;2023-09-12T14:16:29;12.50;;;6.70;;
29246;SDS011;16272;48.188;9.964;2023-09-12T14:18:55;11.23;;;6.60;;
29246;SDS011;16272;48.188;9.964;2023-09-12T14:21:20;10.38;;;6.47;;
29246;SDS011;16272;48.188;9.964;2023-09-12T14:23:46;12.20;;;7.30;;
29246;SDS011;16272;48.188;9.964;2023-09-12T14:26:11;11.80;;;7.10;;
29246;SDS011;16272;48.188;9.964;2023-09-12T14:28:37;11.15;;;6.93;;
29246;SDS011;16272;48.188;9.964;2023-09-12T14:31:02;10.00;;;6.27;;
29246;SDS011;16272;48.188;9.964;2023-09-12T14:33:30;12.05;;;6.53;;
29246;SDS011;16272;48.188;9.964;2023-09-12T14:35:55;11.83;;;6.83;;
29246;SDS011;16272;48.188;9.964;2023-09-12T14:38:20;11.50;;;6.50;;
29246;SDS011;16272;48.188;9.964;2023-09-12T14:40:46;9.67;;;6.17;;
29246;SDS011;16272;48.188;9.964;2023-09-12T14:43:11;10.77;;;6.70;;